sensor_id;sensor_type;location;lat;lon;timestamp;temperature;humidity
67555;HTU21D;54385;53.516;49.456;2022-12-24T00:00:30;0.24;84.30
67555;HTU21D;54385;53.516;49.456;2022-12-24T00:02:57;0.28;84.27
67555;HTU21D;54385;53.516;49.456;2022-12-24T00:05:23;0.28;84.16
67555;HTU21D;54385;53.516;49.456;2022-12-24T00:07:50;0.33;83.58
67555;HTU21D;54385;53.516;49.456;2022-12-24T00:10:19;0.37;83.07
67555;HTU21D;54385;53.516;49.456;2022-12-24T00:12:46;0.43;82.84
67555;HTU21D;54385;53.516;49.456;2022-12-24T00:15:12;0.40;82.90
67555;HTU21D;54385;53.516;49.456;2022-12-24T00:17:38;0.42;82.54
67555;HTU21D;54385;53.516;49.456;2022-12-24T00:20:05;0.44;82.41
67555;HTU21D;54385;53.516;49.456;2022-12-24T00:22:32;0.45;82.55
67555;HTU21D;54385;53.516;49.456;2022-12-24T00:24:58;0.51;82.69
67555;HTU21D;54385;53.516;49.456;2022-12-24T00:27:25;0.57;82.39
67555;HTU21D;54385;53.516;49.456;2022-12-24T00:29:51;0.63;82.45
67555;HTU21D;54385;53.516;49.456;2022-12-24T00:32:20;0.67;82.22
67555;HTU21D;54385;53.516;49.456;2022-12-24T00:34:47;0.68;82.17
67555;HTU21D;54385;53.516;49.456;2022-12-24T00:37:13;0.71;82.36
67555;HTU21D;54385;53.516;49.456;2022-12-24T00:39:39;0.72;82.44
67555;HTU21D;54385;53.516;49.456;2022-12-24T00:42:06;0.73;82.33
67555;HTU21D;54385;53.516;49.456;2022-12-24T00:44:32;0.73;82.31
67555;HTU21D;54385;53.516;49.456;2022-12-24T00:46:58;0.83;82.58
67555;HTU21D;54385;53.516;49.456;2022-12-24T00:49:25;0.88;82.51
67555;HTU21D;54385;53.516;49.456;2022-12-24T00:51:51;0.84;82.53
67555;HTU21D;54385;53.516;49.456;2022-12-24T00:54:18;0.84;83.07
67555;HTU21D;54385;53.516;49.456;2022-12-24T00:56:44;0.84;83.06
67555;HTU21D;54385;53.516;49.456;2022-12-24T00:59:10;0.87;83.13
67555;HTU21D;54385;53.516;49.456;2022-12-24T01:01:37;0.87;83.37
67555;HTU21D;54385;53.516;49.456;2022-12-24T01:04:03;0.93;83.40
67555;HTU21D;54385;53.516;49.456;2022-12-24T01:06:48;0.92;83.56
67555;HTU21D;54385;53.516;49.456;2022-12-24T01:09:14;0.96;83.51
67555;HTU21D;54385;53.516;49.456;2022-12-24T01:11:41;1.07;83.47
67555;HTU21D;54385;53.516;49.456;2022-12-24T01:14:07;1.11;83.16
67555;HTU21D;54385;53.516;49.456;2022-12-24T01:16:34;1.11;83.32
67555;HTU21D;54385;53.516;49.456;2022-12-24T01:19:02;1.18;83.32
67555;HTU21D;54385;53.516;49.456;2022-12-24T01:21:29;1.28;82.88
67555;HTU21D;54385;53.516;49.456;2022-12-24T01:23:55;1.37;82.84
67555;HTU21D;54385;53.516;49.456;2022-12-24T01:26:22;1.38;82.65
67555;HTU21D;54385;53.516;49.456;2022-12-24T01:28:48;1.41;82.80
67555;HTU21D;54385;53.516;49.456;2022-12-24T01:31:17;1.49;82.73
67555;HTU21D;54385;53.516;49.456;2022-12-24T01:33:44;1.57;82.45
67555;HTU21D;54385;53.516;49.456;2022-12-24T01:36:12;1.57;82.30
67555;HTU21D;54385;53.516;49.456;2022-12-24T01:38:38;1.58;82.36
67555;HTU21D;54385;53.516;49.456;2022-12-24T01:41:05;1.58;82.23
67555;HTU21D;54385;53.516;49.456;2022-12-24T01:43:50;1.63;82.63
67555;HTU21D;54385;53.516;49.456;2022-12-24T01:46:24;1.69;82.49
67555;HTU21D;54385;53.516;49.456;2022-12-24T01:49:02;1.73;82.31
67555;HTU21D;54385;53.516;49.456;2022-12-24T01:51:35;1.71;82.59
67555;HTU21D;54385;53.516;49.456;2022-12-24T01:56:57;1.71;82.60
67555;HTU21D;54385;53.516;49.456;2022-12-24T01:59:26;1.71;82.78
67555;HTU21D;54385;53.516;49.456;2022-12-24T02:01:52;1.67;83.16
67555;HTU21D;54385;53.516;49.456;2022-12-24T02:04:37;1.73;83.22
67555;HTU21D;54385;53.516;49.456;2022-12-24T02:07:05;1.78;82.87
67555;HTU21D;54385;53.516;49.456;2022-12-24T02:09:35;1.81;82.82
67555;HTU21D;54385;53.516;49.456;2022-12-24T02:12:03;1.79;83.03
67555;HTU21D;54385;53.516;49.456;2022-12-24T02:14:31;1.78;83.35
67555;HTU21D;54385;53.516;49.456;2022-12-24T02:17:20;1.79;83.34
67555;HTU21D;54385;53.516;49.456;2022-12-24T02:22:44;1.90;83.13
67555;HTU21D;54385;53.516;49.456;2022-12-24T02:31:03;1.79;83.96
67555;HTU21D;54385;53.516;49.456;2022-12-24T02:33:40;1.79;84.19
67555;HTU21D;54385;53.516;49.456;2022-12-24T02:39:02;1.84;84.33
67555;HTU21D;54385;53.516;49.456;2022-12-24T02:41:35;1.87;84.31
67555;HTU21D;54385;53.516;49.456;2022-12-24T02:44:25;1.88;84.44
67555;HTU21D;54385;53.516;49.456;2022-12-24T02:46:52;1.94;84.28
67555;HTU21D;54385;53.516;49.456;2022-12-24T02:49:19;1.96;84.23
67555;HTU21D;54385;53.516;49.456;2022-12-24T02:51:45;1.93;84.43
67555;HTU21D;54385;53.516;49.456;2022-12-24T02:54:13;2.01;84.10
67555;HTU21D;54385;53.516;49.456;2022-12-24T03:08:39;2.02;84.61
67555;HTU21D;54385;53.516;49.456;2022-12-24T03:11:11;1.99;84.58
67555;HTU21D;54385;53.516;49.456;2022-12-24T03:13:51;1.97;84.73
67555;HTU21D;54385;53.516;49.456;2022-12-24T03:16:22;1.97;84.78
67555;HTU21D;54385;53.516;49.456;2022-12-24T03:18:51;1.97;84.78
67555;HTU21D;54385;53.516;49.456;2022-12-24T03:21:31;1.93;84.93
67555;HTU21D;54385;53.516;49.456;2022-12-24T03:23:59;1.90;85.06
67555;HTU21D;54385;53.516;49.456;2022-12-24T03:26:28;1.91;85.14
67555;HTU21D;54385;53.516;49.456;2022-12-24T03:28:54;1.88;85.32
67555;HTU21D;54385;53.516;49.456;2022-12-24T03:31:21;1.92;85.26
67555;HTU21D;54385;53.516;49.456;2022-12-24T03:33:49;1.85;85.51
67555;HTU21D;54385;53.516;49.456;2022-12-24T03:36:15;1.87;85.67
67555;HTU21D;54385;53.516;49.456;2022-12-24T03:38:42;1.94;85.39
67555;HTU21D;54385;53.516;49.456;2022-12-24T03:41:11;1.94;85.48
67555;HTU21D;54385;53.516;49.456;2022-12-24T03:43:39;1.97;85.36
67555;HTU21D;54385;53.516;49.456;2022-12-24T03:46:06;1.94;85.59
67555;HTU21D;54385;53.516;49.456;2022-12-24T03:48:36;1.94;85.77
67555;HTU21D;54385;53.516;49.456;2022-12-24T03:51:03;1.91;85.91
67555;HTU21D;54385;53.516;49.456;2022-12-24T03:53:30;1.96;85.94
67555;HTU21D;54385;53.516;49.456;2022-12-24T03:55:56;1.95;85.95
67555;HTU21D;54385;53.516;49.456;2022-12-24T03:58:23;1.90;86.27
67555;HTU21D;54385;53.516;49.456;2022-12-24T04:00:51;1.81;86.72
67555;HTU21D;54385;53.516;49.456;2022-12-24T04:03:21;1.73;87.14
67555;HTU21D;54385;53.516;49.456;2022-12-24T04:05:47;1.77;87.18
67555;HTU21D;54385;53.516;49.456;2022-12-24T04:08:26;1.78;87.30
67555;HTU21D;54385;53.516;49.456;2022-12-24T04:10:52;1.80;87.41
67555;HTU21D;54385;53.516;49.456;2022-12-24T04:13:18;1.80;87.27
67555;HTU21D;54385;53.516;49.456;2022-12-24T04:15:45;1.78;87.39
67555;HTU21D;54385;53.516;49.456;2022-12-24T04:18:11;1.77;87.35
67555;HTU21D;54385;53.516;49.456;2022-12-24T04:20:38;1.83;87.17
67555;HTU21D;54385;53.516;49.456;2022-12-24T04:23:04;1.88;86.88
67555;HTU21D;54385;53.516;49.456;2022-12-24T04:25:30;1.92;86.66
67555;HTU21D;54385;53.516;49.456;2022-12-24T04:27:57;1.96;86.41
67555;HTU21D;54385;53.516;49.456;2022-12-24T04:30:23;1.99;86.42
67555;HTU21D;54385;53.516;49.456;2022-12-24T04:32:49;1.99;86.39
67555;HTU21D;54385;53.516;49.456;2022-12-24T04:35:16;1.99;86.32
67555;HTU21D;54385;53.516;49.456;2022-12-24T04:37:45;2.00;86.51
67555;HTU21D;54385;53.516;49.456;2022-12-24T04:40:13;2.08;86.22
67555;HTU21D;54385;53.516;49.456;2022-12-24T04:42:43;2.11;85.90
67555;HTU21D;54385;53.516;49.456;2022-12-24T04:45:09;2.05;86.00
67555;HTU21D;54385;53.516;49.456;2022-12-24T04:47:36;2.12;85.80
67555;HTU21D;54385;53.516;49.456;2022-12-24T04:50:03;2.29;85.32
67555;HTU21D;54385;53.516;49.456;2022-12-24T04:52:30;2.19;85.13
67555;HTU21D;54385;53.516;49.456;2022-12-24T04:54:56;2.13;85.40
67555;HTU21D;54385;53.516;49.456;2022-12-24T04:57:23;2.12;85.22
67555;HTU21D;54385;53.516;49.456;2022-12-24T04:59:50;2.08;85.30
67555;HTU21D;54385;53.516;49.456;2022-12-24T05:02:17;2.09;85.32
67555;HTU21D;54385;53.516;49.456;2022-12-24T05:04:43;2.11;85.35
67555;HTU21D;54385;53.516;49.456;2022-12-24T05:07:09;2.19;85.26
67555;HTU21D;54385;53.516;49.456;2022-12-24T05:09:36;2.20;85.26
67555;HTU21D;54385;53.516;49.456;2022-12-24T05:12:09;2.19;85.24
67555;HTU21D;54385;53.516;49.456;2022-12-24T05:14:36;2.21;85.12
67555;HTU21D;54385;53.516;49.456;2022-12-24T05:17:02;2.22;85.26
67555;HTU21D;54385;53.516;49.456;2022-12-24T05:19:29;2.19;85.26
67555;HTU21D;54385;53.516;49.456;2022-12-24T05:21:55;2.14;85.43
67555;HTU21D;54385;53.516;49.456;2022-12-24T05:24:41;2.17;85.43
67555;HTU21D;54385;53.516;49.456;2022-12-24T05:27:26;2.17;85.29
67555;HTU21D;54385;53.516;49.456;2022-12-24T05:29:53;2.20;85.50
67555;HTU21D;54385;53.516;49.456;2022-12-24T05:32:19;2.24;85.29
67555;HTU21D;54385;53.516;49.456;2022-12-24T05:34:46;2.29;85.09
67555;HTU21D;54385;53.516;49.456;2022-12-24T05:37:12;2.25;85.03
67555;HTU21D;54385;53.516;49.456;2022-12-24T05:39:39;2.22;85.12
67555;HTU21D;54385;53.516;49.456;2022-12-24T05:42:05;2.16;85.32
67555;HTU21D;54385;53.516;49.456;2022-12-24T05:44:31;2.16;85.43
67555;HTU21D;54385;53.516;49.456;2022-12-24T05:46:58;2.11;85.57
67555;HTU21D;54385;53.516;49.456;2022-12-24T05:49:24;2.10;85.84
67555;HTU21D;54385;53.516;49.456;2022-12-24T05:51:51;2.19;85.43
67555;HTU21D;54385;53.516;49.456;2022-12-24T05:54:17;2.17;85.47
67555;HTU21D;54385;53.516;49.456;2022-12-24T05:56:44;2.11;85.74
67555;HTU21D;54385;53.516;49.456;2022-12-24T05:59:11;2.10;85.92
67555;HTU21D;54385;53.516;49.456;2022-12-24T06:01:38;2.13;85.74
67555;HTU21D;54385;53.516;49.456;2022-12-24T06:04:04;2.16;85.70
67555;HTU21D;54385;53.516;49.456;2022-12-24T06:06:31;2.17;85.64
67555;HTU21D;54385;53.516;49.456;2022-12-24T06:08:57;2.15;85.72
67555;HTU21D;54385;53.516;49.456;2022-12-24T06:11:26;2.08;86.03
67555;HTU21D;54385;53.516;49.456;2022-12-24T06:13:56;2.11;86.03
67555;HTU21D;54385;53.516;49.456;2022-12-24T06:16:27;2.16;85.97
67555;HTU21D;54385;53.516;49.456;2022-12-24T06:18:54;2.21;85.62
67555;HTU21D;54385;53.516;49.456;2022-12-24T06:21:21;2.29;85.38
67555;HTU21D;54385;53.516;49.456;2022-12-24T06:23:47;2.31;85.16
67555;HTU21D;54385;53.516;49.456;2022-12-24T06:26:22;2.30;85.03
67555;HTU21D;54385;53.516;49.456;2022-12-24T06:28:52;2.25;85.04
67555;HTU21D;54385;53.516;49.456;2022-12-24T06:31:20;2.25;85.14
67555;HTU21D;54385;53.516;49.456;2022-12-24T06:33:47;2.27;85.01
67555;HTU21D;54385;53.516;49.456;2022-12-24T06:36:18;2.31;84.92
67555;HTU21D;54385;53.516;49.456;2022-12-24T06:38:48;2.34;84.86
67555;HTU21D;54385;53.516;49.456;2022-12-24T06:41:19;2.29;84.89
67555;HTU21D;54385;53.516;49.456;2022-12-24T06:43:47;2.37;84.79
67555;HTU21D;54385;53.516;49.456;2022-12-24T06:46:15;2.36;84.63
67555;HTU21D;54385;53.516;49.456;2022-12-24T06:48:44;2.35;84.65
67555;HTU21D;54385;53.516;49.456;2022-12-24T06:51:12;2.38;84.78
67555;HTU21D;54385;53.516;49.456;2022-12-24T06:53:38;2.44;84.61
67555;HTU21D;54385;53.516;49.456;2022-12-24T06:56:06;2.51;84.32
67555;HTU21D;54385;53.516;49.456;2022-12-24T06:58:33;2.50;84.13
67555;HTU21D;54385;53.516;49.456;2022-12-24T07:01:03;2.52;84.35
67555;HTU21D;54385;53.516;49.456;2022-12-24T07:03:30;2.57;84.08
67555;HTU21D;54385;53.516;49.456;2022-12-24T07:05:58;2.56;83.84
67555;HTU21D;54385;53.516;49.456;2022-12-24T07:08:25;2.58;83.63
67555;HTU21D;54385;53.516;49.456;2022-12-24T07:10:52;2.64;83.54
67555;HTU21D;54385;53.516;49.456;2022-12-24T07:13:20;2.72;83.09
67555;HTU21D;54385;53.516;49.456;2022-12-24T07:15:59;2.79;82.74
67555;HTU21D;54385;53.516;49.456;2022-12-24T07:18:26;2.83;82.24
67555;HTU21D;54385;53.516;49.456;2022-12-24T07:20:55;2.79;81.92
67555;HTU21D;54385;53.516;49.456;2022-12-24T07:23:21;2.80;81.74
67555;HTU21D;54385;53.516;49.456;2022-12-24T07:25:48;2.75;81.73
67555;HTU21D;54385;53.516;49.456;2022-12-24T07:28:14;2.70;81.76
67555;HTU21D;54385;53.516;49.456;2022-12-24T07:30:41;2.70;82.01
67555;HTU21D;54385;53.516;49.456;2022-12-24T07:33:10;2.69;81.52
67555;HTU21D;54385;53.516;49.456;2022-12-24T07:35:37;2.64;81.67
67555;HTU21D;54385;53.516;49.456;2022-12-24T07:38:03;2.60;81.78
67555;HTU21D;54385;53.516;49.456;2022-12-24T07:40:30;2.62;81.17
67555;HTU21D;54385;53.516;49.456;2022-12-24T07:42:58;2.66;81.00
67555;HTU21D;54385;53.516;49.456;2022-12-24T07:45:25;2.69;80.68
67555;HTU21D;54385;53.516;49.456;2022-12-24T07:47:51;2.73;80.49
67555;HTU21D;54385;53.516;49.456;2022-12-24T07:50:18;2.70;80.22
67555;HTU21D;54385;53.516;49.456;2022-12-24T07:52:44;2.70;79.91
67555;HTU21D;54385;53.516;49.456;2022-12-24T07:55:11;2.74;79.89
67555;HTU21D;54385;53.516;49.456;2022-12-24T07:57:37;2.66;80.05
67555;HTU21D;54385;53.516;49.456;2022-12-24T08:00:04;2.58;80.43
67555;HTU21D;54385;53.516;49.456;2022-12-24T08:02:31;2.56;80.62
67555;HTU21D;54385;53.516;49.456;2022-12-24T08:04:57;2.53;80.42
67555;HTU21D;54385;53.516;49.456;2022-12-24T08:07:23;2.54;80.60
67555;HTU21D;54385;53.516;49.456;2022-12-24T08:09:50;2.51;80.52
67555;HTU21D;54385;53.516;49.456;2022-12-24T08:12:16;2.44;80.86
67555;HTU21D;54385;53.516;49.456;2022-12-24T08:14:43;2.45;81.15
67555;HTU21D;54385;53.516;49.456;2022-12-24T08:17:09;2.43;81.21
67555;HTU21D;54385;53.516;49.456;2022-12-24T08:19:36;2.35;80.90
67555;HTU21D;54385;53.516;49.456;2022-12-24T08:22:02;2.32;80.97
67555;HTU21D;54385;53.516;49.456;2022-12-24T08:24:28;2.24;80.92
67555;HTU21D;54385;53.516;49.456;2022-12-24T08:26:55;2.21;81.04
67555;HTU21D;54385;53.516;49.456;2022-12-24T08:29:21;2.11;81.11
67555;HTU21D;54385;53.516;49.456;2022-12-24T08:31:48;2.10;81.10
67555;HTU21D;54385;53.516;49.456;2022-12-24T08:34:14;2.07;81.10
67555;HTU21D;54385;53.516;49.456;2022-12-24T08:36:41;2.11;80.77
67555;HTU21D;54385;53.516;49.456;2022-12-24T08:39:08;2.15;80.59
67555;HTU21D;54385;53.516;49.456;2022-12-24T08:41:35;2.19;80.75
67555;HTU21D;54385;53.516;49.456;2022-12-24T08:44:01;2.12;80.74
67555;HTU21D;54385;53.516;49.456;2022-12-24T08:46:28;2.06;80.56
67555;HTU21D;54385;53.516;49.456;2022-12-24T08:48:54;2.09;80.67
67555;HTU21D;54385;53.516;49.456;2022-12-24T08:51:21;2.07;80.42
67555;HTU21D;54385;53.516;49.456;2022-12-24T08:53:47;2.01;80.32
67555;HTU21D;54385;53.516;49.456;2022-12-24T08:56:14;2.10;80.47
67555;HTU21D;54385;53.516;49.456;2022-12-24T08:58:40;2.10;80.24
67555;HTU21D;54385;53.516;49.456;2022-12-24T09:01:17;2.06;79.71
67555;HTU21D;54385;53.516;49.456;2022-12-24T09:03:45;2.05;80.10
67555;HTU21D;54385;53.516;49.456;2022-12-24T09:06:12;2.03;80.08
67555;HTU21D;54385;53.516;49.456;2022-12-24T09:08:39;2.02;79.88
67555;HTU21D;54385;53.516;49.456;2022-12-24T09:11:06;1.95;80.09
67555;HTU21D;54385;53.516;49.456;2022-12-24T09:13:33;1.97;80.41
67555;HTU21D;54385;53.516;49.456;2022-12-24T09:15:59;1.85;80.72
67555;HTU21D;54385;53.516;49.456;2022-12-24T09:18:26;1.82;80.88
67555;HTU21D;54385;53.516;49.456;2022-12-24T09:21:05;1.85;80.54
67555;HTU21D;54385;53.516;49.456;2022-12-24T09:23:35;1.73;80.65
67555;HTU21D;54385;53.516;49.456;2022-12-24T09:26:39;1.54;81.01
67555;HTU21D;54385;53.516;49.456;2022-12-24T09:28:58;1.37;81.72
67555;HTU21D;54385;53.516;49.456;2022-12-24T09:31:28;1.32;81.81
67555;HTU21D;54385;53.516;49.456;2022-12-24T09:33:58;1.32;82.15
67555;HTU21D;54385;53.516;49.456;2022-12-24T09:36:24;1.29;81.75
67555;HTU21D;54385;53.516;49.456;2022-12-24T09:38:52;1.28;81.39
67555;HTU21D;54385;53.516;49.456;2022-12-24T09:46:56;1.09;81.68
67555;HTU21D;54385;53.516;49.456;2022-12-24T09:49:41;1.02;82.52
67555;HTU21D;54385;53.516;49.456;2022-12-24T09:52:12;1.13;82.76
67555;HTU21D;54385;53.516;49.456;2022-12-24T09:54:43;1.20;82.24
67555;HTU21D;54385;53.516;49.456;2022-12-24T09:57:19;1.13;82.11
67555;HTU21D;54385;53.516;49.456;2022-12-24T09:59:48;1.04;82.23
67555;HTU21D;54385;53.516;49.456;2022-12-24T10:02:18;0.96;82.62
67555;HTU21D;54385;53.516;49.456;2022-12-24T10:04:47;0.92;82.42
67555;HTU21D;54385;53.516;49.456;2022-12-24T10:07:41;0.98;82.68
67555;HTU21D;54385;53.516;49.456;2022-12-24T10:10:36;1.02;82.06
67555;HTU21D;54385;53.516;49.456;2022-12-24T10:16:16;0.93;81.91
67555;HTU21D;54385;53.516;49.456;2022-12-24T10:19:20;0.80;82.53
67555;HTU21D;54385;53.516;49.456;2022-12-24T10:22:15;0.84;82.55
67555;HTU21D;54385;53.516;49.456;2022-12-24T10:27:22;0.84;82.33
67555;HTU21D;54385;53.516;49.456;2022-12-24T10:30:01;0.80;82.19
67555;HTU21D;54385;53.516;49.456;2022-12-24T10:32:31;0.67;82.17
67555;HTU21D;54385;53.516;49.456;2022-12-24T10:35:01;0.74;82.38
67555;HTU21D;54385;53.516;49.456;2022-12-24T10:37:29;0.68;82.22
67555;HTU21D;54385;53.516;49.456;2022-12-24T10:39:58;0.64;81.94
67555;HTU21D;54385;53.516;49.456;2022-12-24T10:42:38;0.65;81.42
67555;HTU21D;54385;53.516;49.456;2022-12-24T10:45:14;0.60;81.46
67555;HTU21D;54385;53.516;49.456;2022-12-24T10:47:40;0.43;81.28
67555;HTU21D;54385;53.516;49.456;2022-12-24T10:50:18;0.30;80.89
67555;HTU21D;54385;53.516;49.456;2022-12-24T10:52:48;0.33;81.49
67555;HTU21D;54385;53.516;49.456;2022-12-24T10:57:44;0.20;80.55
67555;HTU21D;54385;53.516;49.456;2022-12-24T11:00:19;0.16;80.55
67555;HTU21D;54385;53.516;49.456;2022-12-24T11:02:47;0.15;81.10
67555;HTU21D;54385;53.516;49.456;2022-12-24T11:05:43;0.21;80.17
67555;HTU21D;54385;53.516;49.456;2022-12-24T11:08:17;0.18;79.98
67555;HTU21D;54385;53.516;49.456;2022-12-24T11:11:00;0.19;80.05
67555;HTU21D;54385;53.516;49.456;2022-12-24T11:13:32;0.12;79.80
67555;HTU21D;54385;53.516;49.456;2022-12-24T11:16:06;0.15;80.08
67555;HTU21D;54385;53.516;49.456;2022-12-24T11:18:47;0.08;79.69
67555;HTU21D;54385;53.516;49.456;2022-12-24T11:21:19;0.08;79.57
67555;HTU21D;54385;53.516;49.456;2022-12-24T11:26:41;-0.14;80.43
67555;HTU21D;54385;53.516;49.456;2022-12-24T11:31:34;-0.34;81.72
67555;HTU21D;54385;53.516;49.456;2022-12-24T11:36:49;-0.43;82.52
67555;HTU21D;54385;53.516;49.456;2022-12-24T11:39:21;-0.46;82.26
67555;HTU21D;54385;53.516;49.456;2022-12-24T11:41:53;-0.61;82.32
67555;HTU21D;54385;53.516;49.456;2022-12-24T11:44:26;-0.77;82.13
67555;HTU21D;54385;53.516;49.456;2022-12-24T11:46:56;-0.84;82.33
67555;HTU21D;54385;53.516;49.456;2022-12-24T11:49:31;-0.93;82.54
67555;HTU21D;54385;53.516;49.456;2022-12-24T11:57:53;-0.96;81.98
67555;HTU21D;54385;53.516;49.456;2022-12-24T12:00:27;-1.09;82.08
67555;HTU21D;54385;53.516;49.456;2022-12-24T12:02:59;-1.15;82.36
67555;HTU21D;54385;53.516;49.456;2022-12-24T12:05:33;-1.21;82.33
67555;HTU21D;54385;53.516;49.456;2022-12-24T12:08:08;-1.31;82.46
67555;HTU21D;54385;53.516;49.456;2022-12-24T12:10:38;-1.46;82.96
67555;HTU21D;54385;53.516;49.456;2022-12-24T12:13:11;-1.49;83.10
67555;HTU21D;54385;53.516;49.456;2022-12-24T12:18:45;-1.53;83.43
67555;HTU21D;54385;53.516;49.456;2022-12-24T12:21:17;-1.50;83.07
67555;HTU21D;54385;53.516;49.456;2022-12-24T12:23:53;-1.56;83.25
67555;HTU21D;54385;53.516;49.456;2022-12-24T12:26:27;-1.62;83.47
67555;HTU21D;54385;53.516;49.456;2022-12-24T12:31:41;-1.72;83.29
67555;HTU21D;54385;53.516;49.456;2022-12-24T12:37:10;-1.83;84.00
67555;HTU21D;54385;53.516;49.456;2022-12-24T12:39:37;-1.88;83.95
67555;HTU21D;54385;53.516;49.456;2022-12-24T12:56:01;-1.84;84.97
67555;HTU21D;54385;53.516;49.456;2022-12-24T12:58:36;-1.86;85.38
67555;HTU21D;54385;53.516;49.456;2022-12-24T13:04:47;-1.82;85.52
67555;HTU21D;54385;53.516;49.456;2022-12-24T13:07:15;-1.77;85.57
67555;HTU21D;54385;53.516;49.456;2022-12-24T13:15:47;-1.62;85.65
67555;HTU21D;54385;53.516;49.456;2022-12-24T13:20:56;-1.56;85.13
67555;HTU21D;54385;53.516;49.456;2022-12-24T13:23:24;-1.58;85.05
67555;HTU21D;54385;53.516;49.456;2022-12-24T13:25:56;-1.56;85.11
67555;HTU21D;54385;53.516;49.456;2022-12-24T13:33:45;-1.46;84.26
67555;HTU21D;54385;53.516;49.456;2022-12-24T13:36:14;-1.48;83.79
67555;HTU21D;54385;53.516;49.456;2022-12-24T13:38:54;-1.46;83.74
67555;HTU21D;54385;53.516;49.456;2022-12-24T13:54:49;-1.42;81.46
67555;HTU21D;54385;53.516;49.456;2022-12-24T13:57:39;-1.45;81.39
67555;HTU21D;54385;53.516;49.456;2022-12-24T14:03:54;-1.45;80.93
67555;HTU21D;54385;53.516;49.456;2022-12-24T14:06:24;-1.44;80.43
67555;HTU21D;54385;53.516;49.456;2022-12-24T14:08:56;-1.44;80.27
67555;HTU21D;54385;53.516;49.456;2022-12-24T14:14:39;-1.48;79.68
67555;HTU21D;54385;53.516;49.456;2022-12-24T14:17:25;-1.49;78.98
67555;HTU21D;54385;53.516;49.456;2022-12-24T14:25:00;-1.53;78.24
67555;HTU21D;54385;53.516;49.456;2022-12-24T14:32:45;-1.67;78.27
67555;HTU21D;54385;53.516;49.456;2022-12-24T14:35:29;-1.70;78.37
67555;HTU21D;54385;53.516;49.456;2022-12-24T14:38:05;-1.72;78.38
67555;HTU21D;54385;53.516;49.456;2022-12-24T14:40:40;-1.71;78.77
67555;HTU21D;54385;53.516;49.456;2022-12-24T14:51:32;-1.80;77.82
67555;HTU21D;54385;53.516;49.456;2022-12-24T14:54:32;-1.83;77.78
67555;HTU21D;54385;53.516;49.456;2022-12-24T15:02:42;-1.84;77.67
67555;HTU21D;54385;53.516;49.456;2022-12-24T15:08:15;-1.86;77.10
67555;HTU21D;54385;53.516;49.456;2022-12-24T15:10:45;-1.83;77.05
67555;HTU21D;54385;53.516;49.456;2022-12-24T15:16:01;-1.86;76.82
67555;HTU21D;54385;53.516;49.456;2022-12-24T15:18:32;-1.83;76.41
67555;HTU21D;54385;53.516;49.456;2022-12-24T15:21:02;-1.85;76.43
67555;HTU21D;54385;53.516;49.456;2022-12-24T15:23:35;-1.82;76.40
67555;HTU21D;54385;53.516;49.456;2022-12-24T15:26:26;-1.79;76.30
67555;HTU21D;54385;53.516;49.456;2022-12-24T15:28:55;-1.80;75.79
67555;HTU21D;54385;53.516;49.456;2022-12-24T15:31:23;-1.78;75.87
67555;HTU21D;54385;53.516;49.456;2022-12-24T15:33:54;-1.80;75.79
67555;HTU21D;54385;53.516;49.456;2022-12-24T15:36:39;-1.77;75.50
67555;HTU21D;54385;53.516;49.456;2022-12-24T15:39:07;-1.79;75.47
67555;HTU21D;54385;53.516;49.456;2022-12-24T15:41:43;-1.76;75.75
67555;HTU21D;54385;53.516;49.456;2022-12-24T15:44:34;-1.78;75.01
67555;HTU21D;54385;53.516;49.456;2022-12-24T15:47:04;-1.82;75.08
67555;HTU21D;54385;53.516;49.456;2022-12-24T15:49:32;-1.78;75.23
67555;HTU21D;54385;53.516;49.456;2022-12-24T15:52:05;-1.79;74.56
67555;HTU21D;54385;53.516;49.456;2022-12-24T15:54:33;-1.78;74.88
67555;HTU21D;54385;53.516;49.456;2022-12-24T15:57:11;-1.82;74.06
67555;HTU21D;54385;53.516;49.456;2022-12-24T15:59:39;-1.85;74.47
67555;HTU21D;54385;53.516;49.456;2022-12-24T16:05:39;-1.87;74.40
67555;HTU21D;54385;53.516;49.456;2022-12-24T16:08:21;-1.92;74.37
67555;HTU21D;54385;53.516;49.456;2022-12-24T16:11:05;-1.93;74.17
67555;HTU21D;54385;53.516;49.456;2022-12-24T16:16:34;-2.00;74.27
67555;HTU21D;54385;53.516;49.456;2022-12-24T16:19:01;-2.01;74.25
67555;HTU21D;54385;53.516;49.456;2022-12-24T16:21:58;-2.07;74.24
67555;HTU21D;54385;53.516;49.456;2022-12-24T16:24:48;-2.15;74.51
67555;HTU21D;54385;53.516;49.456;2022-12-24T16:27:17;-2.20;74.53
67555;HTU21D;54385;53.516;49.456;2022-12-24T16:29:44;-2.19;74.81
67555;HTU21D;54385;53.516;49.456;2022-12-24T16:32:35;-2.24;74.75
67555;HTU21D;54385;53.516;49.456;2022-12-24T16:35:05;-2.24;74.41
67555;HTU21D;54385;53.516;49.456;2022-12-24T16:37:33;-2.28;74.35
67555;HTU21D;54385;53.516;49.456;2022-12-24T16:39:59;-2.30;74.06
67555;HTU21D;54385;53.516;49.456;2022-12-24T16:42:26;-2.34;74.48
67555;HTU21D;54385;53.516;49.456;2022-12-24T16:45:34;-2.34;74.06
67555;HTU21D;54385;53.516;49.456;2022-12-24T16:48:04;-2.32;74.18
67555;HTU21D;54385;53.516;49.456;2022-12-24T16:50:32;-2.34;73.57
67555;HTU21D;54385;53.516;49.456;2022-12-24T16:52:58;-2.33;73.86
67555;HTU21D;54385;53.516;49.456;2022-12-24T16:55:25;-2.34;73.52
67555;HTU21D;54385;53.516;49.456;2022-12-24T16:57:51;-2.43;73.76
67555;HTU21D;54385;53.516;49.456;2022-12-24T17:00:20;-2.44;73.77
67555;HTU21D;54385;53.516;49.456;2022-12-24T17:02:48;-2.45;74.07
67555;HTU21D;54385;53.516;49.456;2022-12-24T17:05:20;-2.48;73.77
67555;HTU21D;54385;53.516;49.456;2022-12-24T17:07:52;-2.56;73.90
67555;HTU21D;54385;53.516;49.456;2022-12-24T17:10:20;-2.58;74.26
67555;HTU21D;54385;53.516;49.456;2022-12-24T17:12:47;-2.60;74.02
67555;HTU21D;54385;53.516;49.456;2022-12-24T17:15:13;-2.61;73.94
67555;HTU21D;54385;53.516;49.456;2022-12-24T17:17:40;-2.64;74.29
67555;HTU21D;54385;53.516;49.456;2022-12-24T17:20:08;-2.67;74.15
67555;HTU21D;54385;53.516;49.456;2022-12-24T17:22:38;-2.69;74.15
67555;HTU21D;54385;53.516;49.456;2022-12-24T17:25:05;-2.69;74.19
67555;HTU21D;54385;53.516;49.456;2022-12-24T17:27:35;-2.72;73.91
67555;HTU21D;54385;53.516;49.456;2022-12-24T17:30:02;-2.71;74.06
67555;HTU21D;54385;53.516;49.456;2022-12-24T17:32:29;-2.72;74.24
67555;HTU21D;54385;53.516;49.456;2022-12-24T17:34:55;-2.69;73.67
67555;HTU21D;54385;53.516;49.456;2022-12-24T17:37:25;-2.72;73.76
67555;HTU21D;54385;53.516;49.456;2022-12-24T17:39:52;-2.75;73.78
67555;HTU21D;54385;53.516;49.456;2022-12-24T17:42:18;-2.79;73.93
67555;HTU21D;54385;53.516;49.456;2022-12-24T17:44:45;-2.75;73.78
67555;HTU21D;54385;53.516;49.456;2022-12-24T17:47:11;-2.72;73.42
67555;HTU21D;54385;53.516;49.456;2022-12-24T17:49:38;-2.77;73.67
67555;HTU21D;54385;53.516;49.456;2022-12-24T17:52:05;-2.77;73.57
67555;HTU21D;54385;53.516;49.456;2022-12-24T17:54:32;-2.76;73.39
67555;HTU21D;54385;53.516;49.456;2022-12-24T17:56:58;-2.73;73.12
67555;HTU21D;54385;53.516;49.456;2022-12-24T17:59:26;-2.66;72.83
67555;HTU21D;54385;53.516;49.456;2022-12-24T18:01:52;-2.64;73.09